Time;durP1;ratioP1;P1;durP2;ratioP2;P2;SDS_P1;SDS_P2;PMS_P1;PMS_P2;Temp;Humidity;BMP_temperature;BMP_pressure;BME280_temperature;BME280_humidity;BME280_pressure;Samples;Min_cycle;Max_cycle;Signal;HPM_P1;HPM_P2
2021/11/18 00:01:49;;;;;;;41.55;14.90;;;;;;;4.63;86.99;101327.38;8340979;33;20404;-73
2021/11/18 00:06:54;;;;;;;37.38;13.70;;;;;;;4.57;86.43;101328.47;8347287;33;20518;-73
2021/11/18 00:11:58;;;;;;;32.10;13.40;;;;;;;4.65;86.65;101328.19;8339129;33;20281;-73
2021/11/18 00:17:01;;;;;;;32.22;13.93;;;;;;;4.60;87.01;101346.97;8336340;33;20808;-73
2021/11/18 00:22:06;;;;;;;34.80;13.73;;;;;;;4.72;86.27;101342.97;8336089;33;20523;-73
2021/11/18 00:27:09;;;;;;;32.70;13.68;;;;;;;4.64;86.71;101366.38;8334438;33;20174;-74
2021/11/18 00:32:12;;;;;;;29.02;12.13;;;;;;;4.86;85.78;101331.75;8321201;33;20282;-73
2021/11/18 00:37:16;;;;;;;30.55;11.98;;;;;;;4.82;85.44;101340.78;8327115;33;20237;-74
2021/11/18 00:42:27;;;;;;;26.45;12.45;;;;;;;4.61;86.06;101369.16;8331157;33;21470;-73
2021/11/18 00:47:30;;;;;;;37.65;15.65;;;;;;;4.98;85.45;101372.97;8317832;33;20186;-73
2021/11/18 00:52:34;;;;;;;32.28;13.10;;;;;;;5.02;84.79;101372.81;8320173;33;20197;-73
2021/11/18 00:57:38;;;;;;;29.65;13.55;;;;;;;4.81;85.73;101361.22;8318706;33;20183;-73
2021/11/18 01:02:47;;;;;;;27.58;12.45;;;;;;;4.70;85.71;101357.28;8318503;33;20186;-73
2021/11/18 01:07:52;;;;;;;31.10;11.38;;;;;;;4.76;85.74;101379.16;8320918;33;20458;-73
2021/11/18 01:12:55;;;;;;;21.63;10.10;;;;;;;4.59;86.52;101382.53;8334654;33;20493;-73
2021/11/18 01:17:59;;;;;;;26.08;10.63;;;;;;;4.87;85.31;101376.06;8331755;33;20666;-74
2021/11/18 01:23:11;;;;;;;42.92;14.55;;;;;;;4.92;85.58;101375.88;8333165;33;20147;-74
2021/11/18 01:28:14;;;;;;;26.23;10.75;;;;;;;4.84;85.54;101394.84;8325654;33;20370;-73
2021/11/18 01:33:18;;;;;;;26.85;11.27;;;;;;;4.95;85.19;101389.94;8323370;33;20483;-74
2021/11/18 01:38:23;;;;;;;33.75;13.85;;;;;;;5.01;85.63;101407.47;8321596;33;20438;-73
2021/11/18 01:43:39;;;;;;;38.25;13.00;;;;;;;4.96;85.52;101420.94;8321115;33;20455;-74
2021/11/18 01:48:43;;;;;;;34.67;12.48;;;;;;;4.94;85.88;101433.47;8321886;33;20150;-74
2021/11/18 01:53:49;;;;;;;29.70;12.13;;;;;;;5.10;85.62;101436.41;8320784;33;20452;-73
2021/11/18 01:58:56;;;;;;;29.42;11.25;;;;;;;5.00;85.61;101424.41;8320275;33;20468;-73
2021/11/18 02:04:18;;;;;;;32.67;12.40;;;;;;;5.26;84.98;101433.97;8319495;33;20960;-74
2021/11/18 02:09:39;;;;;;;35.20;13.98;;;;;;;5.23;84.96;101432.28;8320769;33;20995;-74
2021/11/18 02:14:43;;;;;;;27.90;12.27;;;;;;;5.18;84.82;101422.75;8323245;33;20436;-73
2021/11/18 02:19:49;;;;;;;30.98;11.40;;;;;;;4.99;85.30;101418.22;8320379;33;20151;-74
2021/11/18 02:24:58;;;;;;;30.88;12.73;;;;;;;5.10;84.75;101419.53;8321591;33;20144;-74
2021/11/18 02:30:02;;;;;;;32.60;12.88;;;;;;;5.08;84.99;101416.09;8318962;33;20151;-73
2021/11/18 02:35:14;;;;;;;30.55;12.63;;;;;;;5.17;84.49;101413.03;8309548;33;20935;-73
2021/11/18 02:40:20;;;;;;;29.45;13.05;;;;;;;5.11;84.80;101426.63;8312024;33;20467;-73
2021/11/18 02:45:27;;;;;;;27.52;11.68;;;;;;;4.98;85.07;101411.09;8312538;33;20210;-73
2021/11/18 02:50:34;;;;;;;29.13;12.70;;;;;;;5.00;85.23;101427.94;8317925;33;20532;-73
2021/11/18 02:55:41;;;;;;;29.60;12.18;;;;;;;4.96;85.83;101423.59;8318100;33;20255;-73
2021/11/18 03:00:50;;;;;;;21.45;11.57;;;;;;;4.88;85.82;101425.72;8314320;33;20862;-73
2021/11/18 03:05:57;;;;;;;38.63;14.50;;;;;;;5.23;84.54;101424.28;8311454;33;20372;-74
2021/11/18 03:11:02;;;;;;;27.60;12.65;;;;;;;5.13;84.47;101446.06;8314247;33;20238;-73
2021/11/18 03:16:07;;;;;;;25.38;11.57;;;;;;;5.07;84.95;101449.84;8320877;33;20151;-73
2021/11/18 03:21:15;;;;;;;32.20;14.10;;;;;;;5.09;84.86;101436.47;8333140;33;20429;-73
2021/11/18 03:26:31;;;;;;;35.38;16.33;;;;;;;5.30;84.35;101424.06;8334227;33;21089;-74
2021/11/18 03:31:43;;;;;;;35.83;15.25;;;;;;;5.27;84.35;101427.72;8335153;33;20428;-73
2021/11/18 03:36:47;;;;;;;26.67;12.82;;;;;;;5.11;84.56;101426.63;8335329;33;20190;-74
2021/11/18 03:41:56;;;;;;;22.38;11.27;;;;;;;4.94;85.51;101437.94;8338780;33;20654;-73
2021/11/18 03:47:03;;;;;;;32.15;12.60;;;;;;;4.91;85.64;101436.28;8338275;33;20462;-73
2021/11/18 03:52:14;;;;;;;31.45;14.02;;;;;;;5.01;85.37;101439.44;8337705;33;20402;-73
2021/11/18 03:57:20;;;;;;;29.45;12.70;;;;;;;4.94;85.13;101454.78;8322019;33;20486;-73
2021/11/18 04:02:33;;;;;;;37.08;17.30;;;;;;;4.90;85.73;101454.97;8325972;33;20459;-73
2021/11/18 04:07:40;;;;;;;42.28;16.75;;;;;;;4.76;86.14;101460.84;8321017;33;21027;-74
2021/11/18 04:12:47;;;;;;;38.72;18.35;;;;;;;4.86;85.45;101446.25;8319461;33;20441;-74
2021/11/18 04:17:50;;;;;;;33.80;15.48;;;;;;;4.89;85.09;101443.44;8321234;33;20464;-73
2021/11/18 04:22:57;;;;;;;37.17;18.15;;;;;;;4.91;85.10;101446.94;8319534;33;20147;-74
2021/11/18 04:28:02;;;;;;;42.17;21.00;;;;;;;4.96;84.60;101436.94;8317144;33;20574;-74
2021/11/18 04:33:06;;;;;;;34.60;16.58;;;;;;;4.68;86.00;101423.88;8319343;33;20150;-73
2021/11/18 04:38:09;;;;;;;36.22;18.63;;;;;;;5.00;84.96;101438.59;8320426;33;20693;-74
2021/11/18 04:43:15;;;;;;;36.53;15.50;;;;;;;4.81;85.70;101456.19;8319601;33;20496;-74
2021/11/18 04:48:21;;;;;;;41.60;19.17;;;;;;;4.92;85.13;101451.31;8319269;33;20443;-74
2021/11/18 04:53:26;;;;;;;39.92;18.90;;;;;;;4.80;85.43;101467.75;8319034;33;20174;-74
2021/11/18 04:58:36;;;;;;;46.72;19.02;;;;;;;4.73;85.98;101471.63;8322563;33;20531;-73
2021/11/18 05:03:41;;;;;;;45.08;20.83;;;;;;;4.79;85.71;101477.53;8323562;33;20449;-73
2021/11/18 05:08:45;;;;;;;47.15;21.08;;;;;;;4.61;86.76;101487.13;8323394;33;20702;-74
2021/11/18 05:13:50;;;;;;;46.90;22.27;;;;;;;4.82;86.42;101480.09;8323571;33;20967;-75
2021/11/18 05:18:53;;;;;;;48.85;23.60;;;;;;;4.84;85.99;101485.38;8325843;33;20562;-74
2021/11/18 05:24:01;;;;;;;49.10;22.45;;;;;;;4.91;86.40;101470.88;8330657;33;20428;-74
2021/11/18 05:29:07;;;;;;;42.22;21.05;;;;;;;4.94;85.80;101475.22;8325170;33;20428;-74
2021/11/18 05:34:11;;;;;;;50.85;24.95;;;;;;;5.28;84.74;101483.59;8335752;33;20289;-74
2021/11/18 05:39:16;;;;;;;55.30;24.02;;;;;;;5.18;84.54;101484.03;8328565;33;20161;-74
2021/11/18 05:44:27;;;;;;;51.97;23.92;;;;;;;5.21;84.75;101486.56;8319319;33;20443;-74
2021/11/18 05:49:31;;;;;;;53.08;24.80;;;;;;;5.11;84.67;101490.56;8321918;33;20361;-74
2021/11/18 05:54:48;;;;;;;51.22;23.70;;;;;;;5.16;85.63;101488.56;8322259;33;20946;-74
2021/11/18 05:59:53;;;;;;;50.58;23.20;;;;;;;5.26;84.86;101482.78;8322093;33;20193;-74
2021/11/18 06:04:56;;;;;;;57.47;23.88;;;;;;;5.35;84.77;101501.97;8321013;33;20261;-74
2021/11/18 06:09:59;;;;;;;58.90;26.80;;;;;;;5.11;85.23;101501.22;8322367;33;20264;-73
2021/11/18 06:15:06;;;;;;;52.10;24.73;;;;;;;5.39;84.96;101503.59;8325635;33;20950;-74
2021/11/18 06:20:12;;;;;;;54.53;24.25;;;;;;;5.29;85.04;101508.44;8323833;33;20268;-74
2021/11/18 06:25:19;;;;;;;48.97;23.77;;;;;;;5.12;85.16;101518.91;8321500;33;20469;-73
2021/11/18 06:30:34;;;;;;;51.97;24.85;;;;;;;5.21;85.28;101521.19;8321108;33;20525;-74
2021/11/18 06:35:41;;;;;;;56.80;27.10;;;;;;;5.19;85.13;101515.09;8323669;33;20525;-74
2021/11/18 06:41:05;;;;;;;55.65;23.92;;;;;;;5.10;85.39;101518.09;8321705;33;20412;-74
2021/11/18 06:46:12;;;;;;;53.95;24.70;;;;;;;5.36;84.49;101522.38;8321537;33;20800;-74
2021/11/18 06:51:27;;;;;;;64.97;26.20;;;;;;;5.25;85.02;101538.81;8322040;33;21127;-74
2021/11/18 06:56:36;;;;;;;53.25;26.38;;;;;;;5.10;85.25;101537.63;8312148;33;20745;-74
2021/11/18 07:01:42;;;;;;;54.88;24.63;;;;;;;5.06;84.88;101531.53;8316081;33;20417;-74
2021/11/18 07:06:47;;;;;;;60.75;25.17;;;;;;;5.08;85.36;101531.50;8315344;33;20445;-74
2021/11/18 07:11:55;;;;;;;57.00;24.48;;;;;;;5.15;85.15;101538.28;8315383;33;20648;-74
2021/11/18 07:17:00;;;;;;;51.30;20.85;;;;;;;5.13;84.87;101541.94;8316937;33;20909;-74
2021/11/18 07:22:05;;;;;;;49.95;23.63;;;;;;;5.16;84.74;101532.06;8320916;33;20308;-73
2021/11/18 07:27:33;;;;;;;48.33;21.27;;;;;;;5.20;85.16;101523.00;8333321;33;21488;-73
2021/11/18 07:32:39;;;;;;;51.92;21.10;;;;;;;4.97;85.70;101531.03;8357173;33;20415;-74
2021/11/18 07:37:49;;;;;;;48.97;22.23;;;;;;;5.14;85.48;101541.91;8356143;33;21027;-73
2021/11/18 07:42:54;;;;;;;59.50;24.95;;;;;;;5.22;85.25;101542.47;8346502;33;20128;-73
2021/11/18 07:47:58;;;;;;;54.97;25.50;;;;;;;5.36;84.34;101552.56;8338300;33;20174;-74
2021/11/18 07:53:04;;;;;;;57.17;23.55;;;;;;;5.30;84.88;101546.63;8320951;33;20186;-73
2021/11/18 07:58:09;;;;;;;62.95;25.33;;;;;;;5.30;84.60;101565.28;8322350;33;20609;-73
2021/11/18 08:03:14;;;;;;;55.85;25.58;;;;;;;5.33;84.59;101575.81;8321607;33;20614;-73
2021/11/18 08:08:44;;;;;;;60.03;26.92;;;;;;;5.47;84.81;101584.09;8318453;33;20435;-73
2021/11/18 08:13:48;;;;;;;62.78;27.23;;;;;;;5.59;84.33;101578.25;8315009;33;20210;-74
2021/11/18 08:18:53;;;;;;;58.08;25.10;;;;;;;5.58;83.94;101581.00;8309705;33;21601;-74
2021/11/18 08:23:57;;;;;;;59.33;24.20;;;;;;;5.60;83.83;101581.81;8310767;33;20280;-74
2021/11/18 08:29:05;;;;;;;35.97;15.93;;;;;;;5.52;83.57;101573.25;8313245;33;20183;-73
2021/11/18 08:34:10;;;;;;;38.83;19.48;;;;;;;5.67;83.67;101583.28;8316228;33;20418;-73
2021/11/18 08:39:19;;;;;;;53.47;25.15;;;;;;;5.81;83.76;101562.22;8319297;33;20988;-74
2021/11/18 08:44:26;;;;;;;51.50;23.45;;;;;;;5.81;83.55;101578.22;8317672;33;20139;-73
2021/11/18 08:49:32;;;;;;;44.33;20.10;;;;;;;6.03;82.43;101572.84;8311222;33;20477;-74
2021/11/18 08:54:41;;;;;;;57.67;25.08;;;;;;;6.07;82.68;101570.94;8311600;33;20222;-74
2021/11/18 08:59:45;;;;;;;51.58;24.38;;;;;;;6.22;81.80;101562.25;8313732;33;20151;-74
2021/11/18 09:04:59;;;;;;;36.17;17.70;;;;;;;6.35;81.23;101567.91;8315614;33;20464;-74
2021/11/18 09:10:04;;;;;;;56.78;24.92;;;;;;;6.55;80.87;101567.00;8314733;33;20437;-74
2021/11/18 09:15:11;;;;;;;48.85;21.83;;;;;;;6.50;80.84;101561.91;8311227;33;20474;-74
2021/11/18 09:20:19;;;;;;;42.95;23.60;;;;;;;6.74;80.45;101559.88;8315199;33;20189;-74
2021/11/18 09:25:23;;;;;;;43.60;19.80;;;;;;;6.83;79.42;101571.97;8314743;33;20539;-74
2021/11/18 09:30:30;;;;;;;44.38;20.58;;;;;;;6.69;80.54;101580.63;8310968;33;20472;-74
2021/11/18 09:35:38;;;;;;;45.90;22.00;;;;;;;6.76;80.40;101575.84;8317089;33;20531;-74
2021/11/18 09:40:49;;;;;;;39.75;20.58;;;;;;;7.04;79.29;101584.31;8316789;33;20190;-74
2021/11/18 09:46:12;;;;;;;52.92;20.58;;;;;;;7.06;79.79;101592.28;8314515;33;20957;-74
2021/11/18 09:51:57;;;;;;;41.00;19.13;;;;;;;7.11;78.96;101600.97;8318708;33;20182;-73
2021/11/18 09:57:19;;;;;;;37.38;17.13;;;;;;;6.85;80.12;101597.63;8313352;33;20162;-73
2021/11/18 10:02:56;;;;;;;38.80;18.30;;;;;;;7.07;80.03;101591.34;8316340;33;20454;-74
2021/11/18 10:08:12;;;;;;;32.08;14.63;;;;;;;6.88;79.47;101591.31;8339556;33;20496;-73
2021/11/18 10:13:34;;;;;;;28.52;14.02;;;;;;;7.33;77.93;101603.47;8352037;33;20452;-73
2021/11/18 10:18:46;;;;;;;33.90;15.88;;;;;;;7.17;78.84;101605.16;8370040;33;20168;-73
2021/11/18 10:23:58;;;;;;;30.90;12.45;;;;;;;7.03;79.44;101587.94;8348171;33;21305;-74
2021/11/18 10:29:13;;;;;;;32.95;15.05;;;;;;;7.35;78.73;101588.22;8348366;33;20723;-73
2021/11/18 10:34:24;;;;;;;26.48;14.27;;;;;;;7.37;78.43;101582.78;8351229;33;20931;-74
2021/11/18 10:39:40;;;;;;;36.60;15.13;;;;;;;7.78;76.76;101579.88;8361099;33;20259;-74
2021/11/18 10:44:50;;;;;;;34.13;14.57;;;;;;;8.08;76.00;101583.66;8343024;33;20193;-73
2021/11/18 10:50:08;;;;;;;34.60;14.40;;;;;;;7.72;76.67;101587.28;8344632;33;20425;-74
2021/11/18 10:55:20;;;;;;;26.95;13.38;;;;;;;7.79;77.10;101579.81;8342380;33;20411;-73
2021/11/18 11:00:29;;;;;;;30.17;13.50;;;;;;;7.97;76.07;101561.94;8323570;33;20181;-74
2021/11/18 11:05:40;;;;;;;34.50;14.45;;;;;;;7.92;75.10;101554.16;8321857;33;20472;-73
2021/11/18 11:10:53;;;;;;;31.58;14.32;;;;;;;8.05;75.33;101557.06;8319225;33;20412;-73
2021/11/18 11:16:20;;;;;;;20.92;10.07;;;;;;;8.23;74.26;101540.97;8315747;33;20238;-73
2021/11/18 11:21:48;;;;;;;30.77;12.15;;;;;;;8.28;73.82;101530.91;8317474;33;20242;-73
2021/11/18 11:27:56;;;;;;;27.83;12.27;;;;;;;8.53;73.15;101535.81;8319006;33;20546;-74
2021/11/18 11:33:09;;;;;;;33.00;14.38;;;;;;;8.49;72.54;101540.50;8318634;33;20763;-74
2021/11/18 11:38:45;;;;;;;26.30;10.40;;;;;;;8.28;72.88;101546.97;8320935;33;20190;-74
2021/11/18 11:43:56;;;;;;;24.25;10.88;;;;;;;8.20;73.66;101519.72;8321551;33;20197;-74
2021/11/18 11:49:31;;;;;;;30.02;13.70;;;;;;;8.75;72.32;101527.47;8321882;33;20551;-74
2021/11/18 11:54:55;;;;;;;26.48;12.35;;;;;;;8.42;73.35;101539.09;8323353;33;20194;-73
2021/11/18 12:00:17;;;;;;;28.02;13.50;;;;;;;9.16;71.13;101513.56;8333405;33;20246;-73
2021/11/18 12:05:27;;;;;;;21.25;10.30;;;;;;;8.84;71.03;101522.50;8330132;33;20566;-74
2021/11/18 12:10:39;;;;;;;18.27;7.20;;;;;;;8.91;69.82;101514.97;8326709;33;20480;-73
2021/11/18 12:15:47;;;;;;;24.02;10.43;;;;;;;9.32;69.69;101494.78;8320862;33;20608;-74
2021/11/18 12:20:52;;;;;;;20.63;9.50;;;;;;;10.22;66.00;101478.63;8321846;33;20155;-74
2021/11/18 12:26:13;;;;;;;12.75;6.47;;;;;;;10.14;65.17;101484.47;8321347;33;20261;-74
2021/11/18 12:31:27;;;;;;;21.42;8.95;;;;;;;10.46;64.32;101502.25;8320012;33;20520;-73
2021/11/18 12:37:14;;;;;;;22.42;8.93;;;;;;;9.50;65.34;101485.69;8315302;33;20490;-73
2021/11/18 12:42:41;;;;;;;16.58;7.10;;;;;;;9.38;66.71;101481.91;8309847;33;20151;-75
2021/11/18 12:48:10;;;;;;;22.23;7.43;;;;;;;10.19;63.85;101494.09;8310627;33;20342;-75
2021/11/18 12:53:30;;;;;;;20.45;8.05;;;;;;;10.13;63.10;101479.22;8258505;34;21481;-75
2021/11/18 12:59:02;;;;;;;23.35;8.10;;;;;;;10.31;62.93;101466.44;8315696;33;20425;-75
2021/11/18 13:04:08;;;;;;;16.45;7.15;;;;;;;9.93;63.82;101486.69;8259186;34;20700;-75
2021/11/18 13:09:15;;;;;;;15.77;6.95;;;;;;;9.72;63.97;101466.47;8254871;34;21229;-75
2021/11/18 13:14:33;;;;;;;21.95;7.68;;;;;;;10.11;63.87;101441.72;8256140;34;20289;-75
2021/11/18 13:20:07;;;;;;;20.45;8.50;;;;;;;9.66;64.21;101445.38;8262435;34;21192;-75
2021/11/18 13:25:19;;;;;;;18.80;9.05;;;;;;;9.79;64.50;101450.84;8278632;34;20159;-75
2021/11/18 13:30:31;;;;;;;16.33;6.30;;;;;;;10.04;63.49;101434.13;8283826;34;20438;-73
2021/11/18 13:35:36;;;;;;;12.13;5.75;;;;;;;9.90;63.46;101424.25;8283200;34;20439;-73
2021/11/18 13:40:55;;;;;;;19.10;7.65;;;;;;;9.92;63.95;101433.06;8283514;34;20426;-73
2021/11/18 13:46:08;;;;;;;16.30;6.90;;;;;;;9.76;64.23;101426.91;8287362;34;20470;-73
2021/11/18 13:51:12;;;;;;;21.55;7.60;;;;;;;9.32;65.82;101423.25;8285064;34;20559;-74
2021/11/18 13:56:39;;;;;;;12.25;4.72;;;;;;;8.92;65.99;101417.56;8284276;34;20493;-74
2021/11/18 14:01:46;;;;;;;19.08;6.85;;;;;;;8.96;65.85;101418.22;8280654;34;20477;-74
2021/11/18 14:06:53;;;;;;;18.48;6.25;;;;;;;8.92;66.37;101409.50;8270948;34;20456;-74
2021/11/18 14:12:24;;;;;;;13.93;6.60;;;;;;;8.59;65.87;101373.00;8269261;34;20184;-74
2021/11/18 14:17:32;;;;;;;19.77;7.85;;;;;;;9.12;65.55;101386.03;8323382;33;20163;-73
2021/11/18 14:22:37;;;;;;;18.63;6.88;;;;;;;8.86;66.77;101395.59;8321342;33;20218;-73
2021/11/18 14:28:07;;;;;;;12.27;5.25;;;;;;;8.61;66.46;101418.41;8267603;34;20490;-73
2021/11/18 14:33:22;;;;;;;17.67;6.30;;;;;;;8.70;66.41;101388.44;8321707;33;20299;-73
2021/11/18 14:38:35;;;;;;;12.95;5.07;;;;;;;8.82;66.06;101392.22;8321425;33;20165;-74
2021/11/18 14:43:56;;;;;;;23.88;6.57;;;;;;;8.98;65.84;101392.22;8320435;33;20451;-73
2021/11/18 14:49:03;;;;;;;19.13;6.97;;;;;;;8.46;66.61;101403.22;8309695;33;20162;-73
2021/11/18 14:54:20;;;;;;;11.82;5.05;;;;;;;8.34;67.11;101434.22;8375089;33;20174;-76
2021/11/18 14:59:25;;;;;;;13.90;5.45;;;;;;;8.32;67.49;101433.41;8371424;33;20224;-73
2021/11/18 15:04:32;;;;;;;16.45;5.18;;;;;;;8.34;67.67;101437.75;8368814;33;20811;-74
2021/11/18 15:09:40;;;;;;;16.30;5.78;;;;;;;8.03;68.57;101429.63;8372135;33;20436;-73
2021/11/18 15:14:47;;;;;;;16.95;6.07;;;;;;;8.35;67.49;101431.44;8377787;33;20155;-73
2021/11/18 15:19:52;;;;;;;11.32;5.30;;;;;;;8.38;67.28;101446.47;8394530;33;20498;-74
2021/11/18 15:25:19;;;;;;;16.88;5.65;;;;;;;8.46;67.11;101446.06;8393424;33;20436;-74
2021/11/18 15:30:27;;;;;;;16.80;7.40;;;;;;;8.33;67.17;101459.22;8394264;33;20717;-73
2021/11/18 15:35:35;;;;;;;14.10;5.40;;;;;;;8.13;67.93;101461.19;8388408;33;20189;-75
2021/11/18 15:40:40;;;;;;;13.18;5.30;;;;;;;8.02;68.65;101455.53;8364562;33;20208;-74
2021/11/18 15:45:46;;;;;;;21.10;5.50;;;;;;;8.01;68.23;101453.81;8331789;33;20175;-74
2021/11/18 15:50:53;;;;;;;12.65;4.15;;;;;;;8.07;68.15;101445.47;8320801;33;20186;-74
2021/11/18 15:55:59;;;;;;;14.93;5.28;;;;;;;8.13;68.28;101454.97;8318861;33;20177;-74
2021/11/18 16:01:10;;;;;;;12.60;4.50;;;;;;;8.01;69.67;101455.59;8318345;33;20493;-74
2021/11/18 16:06:14;;;;;;;11.98;3.97;;;;;;;7.74;70.37;101450.78;8316242;33;20155;-74
2021/11/18 16:11:22;;;;;;;12.98;5.25;;;;;;;7.87;71.06;101441.19;8318276;33;20696;-74
2021/11/18 16:16:29;;;;;;;12.82;4.07;;;;;;;7.75;71.11;101448.97;8318804;33;20453;-74
2021/11/18 16:21:36;;;;;;;13.82;5.20;;;;;;;7.56;71.79;101441.91;8320704;33;20465;-74
2021/11/18 16:26:41;;;;;;;17.13;5.07;;;;;;;7.74;71.16;101464.16;8332573;33;20153;-74
2021/11/18 16:31:49;;;;;;;17.73;6.40;;;;;;;7.91;69.83;101439.19;8335764;33;20931;-74
2021/11/18 16:36:55;;;;;;;18.48;5.35;;;;;;;7.92;70.81;101455.16;8331606;33;20182;-74
2021/11/18 16:42:03;;;;;;;17.85;5.47;;;;;;;7.93;70.67;101456.91;8333904;33;20167;-73
2021/11/18 16:47:12;;;;;;;15.27;5.65;;;;;;;7.61;72.01;101463.06;8333772;33;20437;-74
2021/11/18 16:52:24;;;;;;;14.40;6.57;;;;;;;8.00;70.97;101469.94;8319840;33;20471;-74
2021/11/18 16:57:28;;;;;;;24.30;7.03;;;;;;;7.98;70.59;101483.44;8313658;33;20216;-74
2021/11/18 17:02:33;;;;;;;10.63;4.45;;;;;;;8.19;69.72;101492.09;8307159;33;20435;-74
2021/11/18 17:07:36;;;;;;;13.43;5.13;;;;;;;7.92;70.86;101489.94;8316366;33;20488;-74
2021/11/18 17:12:42;;;;;;;14.27;5.10;;;;;;;7.85;70.48;101511.75;8315800;33;20421;-74
2021/11/18 17:17:47;;;;;;;22.27;5.35;;;;;;;8.02;70.30;101505.53;8318511;33;20539;-75
2021/11/18 17:22:50;;;;;;;11.00;5.53;;;;;;;8.00;70.46;101486.84;8321084;33;20193;-74
2021/11/18 17:27:55;;;;;;;8.82;4.18;;;;;;;8.10;70.11;101508.66;8317032;33;20540;-74
2021/11/18 17:33:00;;;;;;;9.80;5.05;;;;;;;7.86;71.23;101482.22;8317510;33;20446;-74
2021/11/18 17:38:03;;;;;;;21.60;6.35;;;;;;;7.77;71.85;101490.75;8316645;33;21168;-74
2021/11/18 17:43:08;;;;;;;19.63;6.88;;;;;;;8.24;70.41;101478.47;8321500;33;20456;-74
2021/11/18 17:48:14;;;;;;;13.63;5.32;;;;;;;8.00;71.38;101502.06;8304479;33;20445;-74
2021/11/18 17:53:18;;;;;;;16.27;6.57;;;;;;;8.11;71.70;101497.84;8296129;33;20156;-74
2021/11/18 17:58:22;;;;;;;16.13;6.60;;;;;;;7.95;72.41;101496.94;8319193;33;20152;-74
2021/11/18 18:03:32;;;;;;;15.45;5.80;;;;;;;8.20;71.61;101515.28;8285053;33;20209;-74
2021/11/18 18:08:36;;;;;;;18.35;6.20;;;;;;;8.26;71.59;101527.47;8284007;33;20437;-75
2021/11/18 18:13:44;;;;;;;18.65;6.15;;;;;;;7.90;72.11;101539.16;8279548;33;20548;-74
2021/11/18 18:18:53;;;;;;;18.70;7.78;;;;;;;8.07;71.65;101551.66;8269469;33;20156;-74
2021/11/18 18:23:57;;;;;;;14.55;6.35;;;;;;;7.73;72.73;101545.34;8263754;33;20164;-74
2021/11/18 18:29:01;;;;;;;17.83;7.05;;;;;;;7.95;72.64;101521.03;8265034;33;20898;-75
2021/11/18 18:34:06;;;;;;;22.38;7.10;;;;;;;8.00;73.40;101521.66;8267108;33;21061;-75
2021/11/18 18:39:20;;;;;;;12.57;6.07;;;;;;;7.51;75.97;101529.50;8269910;33;20453;-74
2021/11/18 18:44:25;;;;;;;9.07;5.57;;;;;;;7.47;76.64;101522.59;8356881;33;20159;-74
2021/11/18 18:49:33;;;;;;;17.70;5.80;;;;;;;7.68;76.38;101521.50;8332470;33;21001;-74
2021/11/18 18:54:37;;;;;;;12.30;6.15;;;;;;;7.35;78.16;101515.16;8325548;33;20511;-74
2021/11/18 18:59:43;;;;;;;28.38;8.32;;;;;;;7.30;78.46;101515.41;8324665;33;20151;-74
2021/11/18 19:04:48;;;;;;;17.27;6.82;;;;;;;7.44;78.83;101512.91;8334327;33;20159;-74
2021/11/18 19:09:52;;;;;;;18.27;8.73;;;;;;;7.49;78.82;101515.38;8338873;33;20403;-74
2021/11/18 19:14:58;;;;;;;22.23;9.75;;;;;;;7.63;78.95;101514.66;8336125;34;20348;-74
2021/11/18 19:20:05;;;;;;;18.08;7.70;;;;;;;7.35;79.84;101508.03;8337724;34;20179;-73
2021/11/18 19:25:15;;;;;;;25.63;10.73;;;;;;;7.66;79.03;101510.03;8357711;34;20223;-74
2021/11/18 19:35:54;;;;;;;27.85;12.85;;;;;;;7.24;81.87;101513.03;8336159;34;21972;-74
2021/11/18 19:41:03;;;;;;;33.92;13.57;;;;;;;7.42;82.07;101497.88;8336863;34;20424;-74
2021/11/18 19:46:16;;;;;;;27.38;13.40;;;;;;;7.29;82.58;101494.94;8342770;34;20237;-74
2021/11/18 19:51:25;;;;;;;32.72;14.90;;;;;;;7.54;81.49;101489.22;8343227;34;21466;-74
2021/11/18 19:56:28;;;;;;;30.33;15.20;;;;;;;7.38;82.79;101507.88;8345651;34;20217;-74
2021/11/18 20:01:37;;;;;;;27.77;15.55;;;;;;;7.22;84.10;101529.16;8346752;34;20627;-74
2021/11/18 20:06:42;;;;;;;31.75;14.07;;;;;;;7.17;84.50;101514.28;8346464;34;20191;-74
2021/11/18 20:11:45;;;;;;;31.10;16.85;;;;;;;7.43;83.62;101515.66;8349346;34;20444;-74
2021/11/18 20:16:49;;;;;;;36.88;18.15;;;;;;;7.60;82.59;101521.03;8347342;34;20268;-74
2021/11/18 20:21:54;;;;;;;34.90;19.73;;;;;;;7.44;83.75;101520.94;8343417;34;20937;-74
2021/11/18 20:26:59;;;;;;;26.33;12.32;;;;;;;7.18;84.29;101526.69;8343126;34;20508;-74
2021/11/18 20:32:12;;;;;;;29.65;17.02;;;;;;;7.32;84.11;101523.34;8348526;34;20526;-74
2021/11/18 20:37:22;;;;;;;42.90;19.30;;;;;;;7.63;82.84;101510.19;8341391;34;20178;-75
2021/11/18 20:42:25;;;;;;;34.30;19.38;;;;;;;7.69;82.63;101515.22;8342599;34;20241;-74
2021/11/18 20:47:29;;;;;;;42.95;20.92;;;;;;;7.52;83.87;101520.56;8341850;34;20923;-74
2021/11/18 20:52:38;;;;;;;39.67;20.13;;;;;;;7.73;82.81;101519.47;8341388;34;20442;-74
2021/11/18 20:57:42;;;;;;;43.60;18.67;;;;;;;7.41;84.19;101525.56;8339979;34;20144;-76
2021/11/18 21:02:46;;;;;;;45.97;21.10;;;;;;;7.68;83.91;101526.00;8334780;34;20576;-75
2021/11/18 21:07:50;;;;;;;40.55;18.88;;;;;;;7.45;84.92;101548.53;8334476;34;20150;-76
2021/11/18 21:12:53;;;;;;;38.85;20.40;;;;;;;7.68;84.14;101542.06;8334888;34;20425;-75
2021/11/18 21:17:56;;;;;;;51.95;23.17;;;;;;;7.79;84.05;101538.81;8328086;34;21111;-75
2021/11/18 21:23:01;;;;;;;45.47;23.30;;;;;;;7.83;83.95;101535.91;8328367;34;20497;-75
2021/11/18 21:28:05;;;;;;;50.22;23.17;;;;;;;7.77;83.92;101536.22;8333781;33;20445;-75
2021/11/18 21:33:09;;;;;;;50.92;22.48;;;;;;;7.91;83.04;101546.22;8334794;33;20457;-75
2021/11/18 21:38:16;;;;;;;46.72;21.65;;;;;;;7.69;84.74;101557.16;8355338;33;20467;-75
2021/11/18 21:43:23;;;;;;;54.75;23.75;;;;;;;7.92;83.87;101558.63;8342842;33;20431;-75
2021/11/18 21:48:34;;;;;;;58.88;23.02;;;;;;;8.01;83.33;101566.22;8363099;33;21801;-76
2021/11/18 21:53:43;;;;;;;41.10;18.67;;;;;;;7.67;84.25;101559.03;8341582;33;21853;-75
2021/11/18 21:58:49;;;;;;;61.03;23.45;;;;;;;7.72;84.18;101557.84;8359424;33;20865;-76
2021/11/18 22:03:53;;;;;;;56.85;27.58;;;;;;;7.68;84.52;101552.75;8327196;33;20539;-75
2021/11/18 22:08:59;;;;;;;61.53;29.35;;;;;;;7.72;84.52;101548.97;8269464;34;20437;-76
2021/11/18 22:14:04;;;;;;;61.35;29.27;;;;;;;7.77;83.65;101556.75;8268692;34;20937;-76
2021/11/18 22:19:08;;;;;;;51.28;23.17;;;;;;;7.57;84.61;101552.41;8297556;33;20435;-76
2021/11/18 22:24:20;;;;;;;52.45;24.70;;;;;;;7.63;84.32;101549.44;8298993;33;20209;-74
2021/11/18 22:29:29;;;;;;;62.30;25.52;;;;;;;7.63;84.83;101544.94;8296661;33;20189;-74
2021/11/18 22:34:32;;;;;;;62.00;31.38;;;;;;;7.78;84.67;101553.13;8304978;33;21059;-73
2021/11/18 22:39:49;;;;;;;48.20;21.70;;;;;;;7.69;84.82;101558.00;8308919;33;20894;-74
2021/11/18 22:44:55;;;;;;;59.95;24.15;;;;;;;7.45;85.75;101564.56;8293587;34;20266;-74
2021/11/18 22:50:00;;;;;;;60.20;27.52;;;;;;;7.65;85.65;101558.22;8308457;34;20286;-74
2021/11/18 22:55:07;;;;;;;53.67;25.83;;;;;;;7.60;86.10;101557.63;8284360;34;20163;-73
2021/11/18 23:00:15;;;;;;;55.42;27.05;;;;;;;7.59;86.40;101550.50;8286187;34;20148;-74
2021/11/18 23:05:18;;;;;;;62.08;29.00;;;;;;;7.55;87.16;101568.53;8281584;34;22505;-74
2021/11/18 23:10:24;;;;;;;56.83;27.35;;;;;;;7.43;88.56;101550.41;8281461;34;20437;-74
2021/11/18 23:15:29;;;;;;;56.75;22.17;;;;;;;7.37;88.33;101556.06;8281611;34;21416;-75
2021/11/18 23:20:38;;;;;;;59.15;25.95;;;;;;;7.46;88.24;101575.22;8282092;34;21044;-74
2021/11/18 23:25:43;;;;;;;56.77;25.93;;;;;;;7.43;89.44;101550.41;8280774;34;20434;-74
2021/11/18 23:30:47;;;;;;;55.25;26.70;;;;;;;7.63;88.36;101550.28;8281955;34;20449;-74
2021/11/18 23:35:50;;;;;;;53.80;22.65;;;;;;;7.40;88.82;101550.56;8285378;34;20459;-74
2021/11/18 23:40:55;;;;;;;57.40;26.38;;;;;;;7.63;88.36;101547.63;8285729;34;22057;-74
2021/11/18 23:45:58;;;;;;;58.35;26.00;;;;;;;7.70;88.18;101535.66;8288775;34;20234;-74
2021/11/18 23:51:02;;;;;;;56.10;27.05;;;;;;;7.92;87.42;101545.25;8290429;34;20152;-74